sensor_id;sensor_type;location;lat;lon;timestamp;pressure;altitude;pressure_sealevel;temperature;humidity
61898;BME280;47850;50.274;18.908;2023-05-25T00:00:30;98625.80;;;11.44;81.21
61898;BME280;47850;50.274;18.908;2023-05-25T00:03:29;98631.10;;;11.42;80.97
61898;BME280;47850;50.274;18.908;2023-05-25T00:06:00;98634.54;;;11.39;80.87
61898;BME280;47850;50.274;18.908;2023-05-25T00:08:28;98633.16;;;11.34;80.98
61898;BME280;47850;50.274;18.908;2023-05-25T00:10:56;98633.64;;;11.31;80.94
61898;BME280;47850;50.274;18.908;2023-05-25T00:13:24;98637.07;;;11.28;81.08
61898;BME280;47850;50.274;18.908;2023-05-25T00:15:52;98636.74;;;11.26;81.08
61898;BME280;47850;50.274;18.908;2023-05-25T00:18:20;98635.45;;;11.26;81.17
61898;BME280;47850;50.274;18.908;2023-05-25T00:20:48;98639.95;;;11.25;81.27
61898;BME280;47850;50.274;18.908;2023-05-25T00:23:16;98639.34;;;11.25;81.36
61898;BME280;47850;50.274;18.908;2023-05-25T00:25:44;98638.92;;;11.26;81.34
61898;BME280;47850;50.274;18.908;2023-05-25T00:28:12;98633.60;;;11.28;81.39
61898;BME280;47850;50.274;18.908;2023-05-25T00:30:40;98634.48;;;11.28;81.22
61898;BME280;47850;50.274;18.908;2023-05-25T00:45:10;98627.48;;;11.30;80.93
61898;BME280;47850;50.274;18.908;2023-05-25T00:47:38;98630.83;;;11.30;80.82
61898;BME280;47850;50.274;18.908;2023-05-25T00:50:08;98630.77;;;11.30;80.71
61898;BME280;47850;50.274;18.908;2023-05-25T00:52:36;98627.96;;;11.30;80.63
61898;BME280;47850;50.274;18.908;2023-05-25T00:55:05;98627.42;;;11.30;80.42
61898;BME280;47850;50.274;18.908;2023-05-25T00:57:36;98629.22;;;11.30;80.28
61898;BME280;47850;50.274;18.908;2023-05-25T01:00:07;98635.52;;;11.30;80.37
61898;BME280;47850;50.274;18.908;2023-05-25T01:02:39;98636.23;;;11.30;80.25
61898;BME280;47850;50.274;18.908;2023-05-25T01:05:10;98640.78;;;11.31;80.39
61898;BME280;47850;50.274;18.908;2023-05-25T01:07:41;98640.43;;;11.32;80.44
61898;BME280;47850;50.274;18.908;2023-05-25T01:10:10;98637.32;;;11.32;80.34
61898;BME280;47850;50.274;18.908;2023-05-25T01:12:41;98639.75;;;11.30;80.38
61898;BME280;47850;50.274;18.908;2023-05-25T01:15:11;98642.68;;;11.30;80.41
61898;BME280;47850;50.274;18.908;2023-05-25T01:17:39;98645.66;;;11.28;80.37
61898;BME280;47850;50.274;18.908;2023-05-25T01:20:08;98640.66;;;11.25;80.26
61898;BME280;47850;50.274;18.908;2023-05-25T01:22:39;98637.08;;;11.22;80.33
61898;BME280;47850;50.274;18.908;2023-05-25T01:25:12;98640.69;;;11.20;80.39
61898;BME280;47850;50.274;18.908;2023-05-25T01:27:49;98640.41;;;11.17;80.43
61898;BME280;47850;50.274;18.908;2023-05-25T01:30:18;98642.52;;;11.16;80.47
61898;BME280;47850;50.274;18.908;2023-05-25T01:32:49;98642.52;;;11.14;80.51
61898;BME280;47850;50.274;18.908;2023-05-25T01:35:17;98640.73;;;11.11;80.56
61898;BME280;47850;50.274;18.908;2023-05-25T01:37:48;98644.87;;;11.10;80.56
61898;BME280;47850;50.274;18.908;2023-05-25T01:40:19;98645.81;;;11.07;80.70
61898;BME280;47850;50.274;18.908;2023-05-25T01:42:47;98645.50;;;11.04;80.57
61898;BME280;47850;50.274;18.908;2023-05-25T01:45:15;98644.91;;;11.01;80.63
61898;BME280;47850;50.274;18.908;2023-05-25T01:48:05;98644.95;;;10.99;80.70
61898;BME280;47850;50.274;18.908;2023-05-25T01:53:30;98649.25;;;10.98;80.90
61898;BME280;47850;50.274;18.908;2023-05-25T01:56:08;98643.63;;;10.98;81.09
61898;BME280;47850;50.274;18.908;2023-05-25T01:58:41;98636.61;;;10.95;81.00
61898;BME280;47850;50.274;18.908;2023-05-25T02:01:09;98639.25;;;10.93;81.08
61898;BME280;47850;50.274;18.908;2023-05-25T02:03:40;98639.70;;;10.91;81.19
61898;BME280;47850;50.274;18.908;2023-05-25T02:06:08;98640.08;;;10.91;81.10
61898;BME280;47850;50.274;18.908;2023-05-25T02:08:35;98634.50;;;10.89;81.20
61898;BME280;47850;50.274;18.908;2023-05-25T02:11:03;98629.86;;;10.87;81.23
61898;BME280;47850;50.274;18.908;2023-05-25T02:13:31;98630.77;;;10.87;81.34
61898;BME280;47850;50.274;18.908;2023-05-25T02:15:59;98631.36;;;10.88;81.33
61898;BME280;47850;50.274;18.908;2023-05-25T02:18:27;98632.16;;;10.89;81.41
61898;BME280;47850;50.274;18.908;2023-05-25T02:20:55;98633.20;;;10.89;81.43
61898;BME280;47850;50.274;18.908;2023-05-25T02:23:23;98635.80;;;10.88;81.52
61898;BME280;47850;50.274;18.908;2023-05-25T02:25:51;98641.34;;;10.88;81.53
61898;BME280;47850;50.274;18.908;2023-05-25T02:28:18;98637.52;;;10.88;81.63
61898;BME280;47850;50.274;18.908;2023-05-25T02:30:46;98637.17;;;10.89;81.62
61898;BME280;47850;50.274;18.908;2023-05-25T02:33:14;98640.81;;;10.90;81.53
61898;BME280;47850;50.274;18.908;2023-05-25T02:35:42;98640.75;;;10.90;81.32
61898;BME280;47850;50.274;18.908;2023-05-25T02:38:09;98642.88;;;10.91;81.38
61898;BME280;47850;50.274;18.908;2023-05-25T02:40:37;98640.16;;;10.90;81.24
61898;BME280;47850;50.274;18.908;2023-05-25T02:43:05;98647.64;;;10.88;81.27
61898;BME280;47850;50.274;18.908;2023-05-25T02:45:33;98644.52;;;10.88;81.38
61898;BME280;47850;50.274;18.908;2023-05-25T02:48:01;98641.05;;;10.89;81.31
61898;BME280;47850;50.274;18.908;2023-05-25T02:50:29;98643.70;;;10.90;81.39
61898;BME280;47850;50.274;18.908;2023-05-25T02:52:56;98639.60;;;10.91;81.50
61898;BME280;47850;50.274;18.908;2023-05-25T02:55:24;98637.29;;;10.91;81.60
61898;BME280;47850;50.274;18.908;2023-05-25T02:57:52;98636.80;;;10.91;81.58
61898;BME280;47850;50.274;18.908;2023-05-25T03:00:20;98628.21;;;10.90;81.54
61898;BME280;47850;50.274;18.908;2023-05-25T03:02:48;98630.58;;;10.87;81.56
61898;BME280;47850;50.274;18.908;2023-05-25T03:05:16;98633.02;;;10.87;81.72
61898;BME280;47850;50.274;18.908;2023-05-25T03:07:44;98635.29;;;10.86;81.75
61898;BME280;47850;50.274;18.908;2023-05-25T03:10:12;98634.60;;;10.84;81.83
61898;BME280;47850;50.274;18.908;2023-05-25T03:12:40;98637.98;;;10.85;81.92
61898;BME280;47850;50.274;18.908;2023-05-25T03:15:08;98635.12;;;10.84;81.94
61898;BME280;47850;50.274;18.908;2023-05-25T03:17:39;98630.58;;;10.82;82.05
61898;BME280;47850;50.274;18.908;2023-05-25T03:20:07;98627.30;;;10.82;82.20
61898;BME280;47850;50.274;18.908;2023-05-25T03:22:36;98629.40;;;10.82;82.12
61898;BME280;47850;50.274;18.908;2023-05-25T03:25:05;98628.35;;;10.81;82.15
61898;BME280;47850;50.274;18.908;2023-05-25T03:27:32;98633.44;;;10.81;82.39
61898;BME280;47850;50.274;18.908;2023-05-25T03:30:00;98631.20;;;10.82;82.32
61898;BME280;47850;50.274;18.908;2023-05-25T03:32:28;98631.29;;;10.82;82.28
61898;BME280;47850;50.274;18.908;2023-05-25T03:34:56;98632.48;;;10.80;82.40
61898;BME280;47850;50.274;18.908;2023-05-25T03:37:24;98635.52;;;10.78;82.35
61898;BME280;47850;50.274;18.908;2023-05-25T03:39:52;98642.16;;;10.77;82.56
61898;BME280;47850;50.274;18.908;2023-05-25T03:42:19;98639.55;;;10.75;82.63
61898;BME280;47850;50.274;18.908;2023-05-25T03:44:47;98643.77;;;10.74;82.74
61898;BME280;47850;50.274;18.908;2023-05-25T03:47:15;98646.61;;;10.73;82.52
61898;BME280;47850;50.274;18.908;2023-05-25T03:49:43;98649.81;;;10.74;82.68
61898;BME280;47850;50.274;18.908;2023-05-25T03:52:10;98649.20;;;10.75;82.64
61898;BME280;47850;50.274;18.908;2023-05-25T03:54:38;98653.31;;;10.76;82.60
61898;BME280;47850;50.274;18.908;2023-05-25T03:57:06;98654.09;;;10.76;82.53
61898;BME280;47850;50.274;18.908;2023-05-25T03:59:34;98655.23;;;10.75;82.30
61898;BME280;47850;50.274;18.908;2023-05-25T04:02:02;98658.18;;;10.75;82.29
61898;BME280;47850;50.274;18.908;2023-05-25T04:04:29;98662.65;;;10.76;82.36
61898;BME280;47850;50.274;18.908;2023-05-25T04:06:57;98662.58;;;10.74;82.46
61898;BME280;47850;50.274;18.908;2023-05-25T04:09:25;98669.70;;;10.75;82.49
61898;BME280;47850;50.274;18.908;2023-05-25T04:11:53;98666.77;;;10.77;82.43
61898;BME280;47850;50.274;18.908;2023-05-25T04:14:31;98668.45;;;10.78;82.35
61898;BME280;47850;50.274;18.908;2023-05-25T04:16:59;98667.52;;;10.77;82.26
61898;BME280;47850;50.274;18.908;2023-05-25T04:19:27;98667.27;;;10.76;82.38
61898;BME280;47850;50.274;18.908;2023-05-25T04:21:54;98673.20;;;10.74;82.52
61898;BME280;47850;50.274;18.908;2023-05-25T04:24:22;98677.47;;;10.74;82.59
61898;BME280;47850;50.274;18.908;2023-05-25T04:26:50;98677.78;;;10.74;82.71
61898;BME280;47850;50.274;18.908;2023-05-25T04:29:18;98679.86;;;10.75;82.71
61898;BME280;47850;50.274;18.908;2023-05-25T04:31:46;98682.68;;;10.77;82.73
61898;BME280;47850;50.274;18.908;2023-05-25T04:34:13;98685.58;;;10.80;82.75
61898;BME280;47850;50.274;18.908;2023-05-25T04:36:41;98687.54;;;10.82;82.73
61898;BME280;47850;50.274;18.908;2023-05-25T04:39:11;98687.57;;;10.84;82.78
61898;BME280;47850;50.274;18.908;2023-05-25T04:41:39;98686.70;;;10.85;82.83
61898;BME280;47850;50.274;18.908;2023-05-25T04:44:07;98689.59;;;10.84;82.69
61898;BME280;47850;50.274;18.908;2023-05-25T04:46:35;98690.35;;;10.85;82.73
61898;BME280;47850;50.274;18.908;2023-05-25T04:49:06;98691.65;;;10.86;82.68
61898;BME280;47850;50.274;18.908;2023-05-25T04:51:36;98694.95;;;10.85;82.34
61898;BME280;47850;50.274;18.908;2023-05-25T04:54:04;98693.05;;;10.84;82.19
61898;BME280;47850;50.274;18.908;2023-05-25T04:56:32;98694.23;;;10.88;82.27
61898;BME280;47850;50.274;18.908;2023-05-25T04:59:00;98696.08;;;10.91;82.04
61898;BME280;47850;50.274;18.908;2023-05-25T05:01:28;98687.83;;;10.93;81.94
61898;BME280;47850;50.274;18.908;2023-05-25T05:03:56;98691.65;;;10.98;81.92
61898;BME280;47850;50.274;18.908;2023-05-25T05:06:23;98694.23;;;11.02;81.71
61898;BME280;47850;50.274;18.908;2023-05-25T05:08:52;98693.48;;;11.06;81.50
61898;BME280;47850;50.274;18.908;2023-05-25T05:11:20;98697.27;;;11.10;81.38
61898;BME280;47850;50.274;18.908;2023-05-25T05:13:48;98701.50;;;11.15;81.44
61898;BME280;47850;50.274;18.908;2023-05-25T05:16:16;98705.13;;;11.22;81.31
61898;BME280;47850;50.274;18.908;2023-05-25T05:18:44;98707.34;;;11.25;81.01
61898;BME280;47850;50.274;18.908;2023-05-25T05:21:12;98709.08;;;11.25;80.93
61898;BME280;47850;50.274;18.908;2023-05-25T05:23:41;98713.87;;;11.26;80.92
61898;BME280;47850;50.274;18.908;2023-05-25T05:26:09;98715.46;;;11.25;80.95
61898;BME280;47850;50.274;18.908;2023-05-25T05:28:38;98716.65;;;11.26;81.14
61898;BME280;47850;50.274;18.908;2023-05-25T05:31:05;98716.34;;;11.25;81.08
61898;BME280;47850;50.274;18.908;2023-05-25T05:33:33;98719.23;;;11.27;81.22
61898;BME280;47850;50.274;18.908;2023-05-25T05:36:01;98722.41;;;11.27;81.09
61898;BME280;47850;50.274;18.908;2023-05-25T05:38:30;98721.31;;;11.27;81.30
61898;BME280;47850;50.274;18.908;2023-05-25T05:40:58;98723.01;;;11.25;81.38
61898;BME280;47850;50.274;18.908;2023-05-25T05:43:26;98724.33;;;11.22;81.58
61898;BME280;47850;50.274;18.908;2023-05-25T05:45:53;98727.48;;;11.16;81.72
61898;BME280;47850;50.274;18.908;2023-05-25T05:48:21;98728.20;;;11.12;81.74
61898;BME280;47850;50.274;18.908;2023-05-25T05:50:49;98726.24;;;11.12;81.80
61898;BME280;47850;50.274;18.908;2023-05-25T05:53:18;98729.21;;;11.14;81.88
61898;BME280;47850;50.274;18.908;2023-05-25T05:55:46;98734.45;;;11.16;81.79
61898;BME280;47850;50.274;18.908;2023-05-25T05:58:14;98736.42;;;11.16;81.92
61898;BME280;47850;50.274;18.908;2023-05-25T06:00:42;98730.36;;;11.16;81.96
61898;BME280;47850;50.274;18.908;2023-05-25T06:03:10;98735.64;;;11.17;81.96
61898;BME280;47850;50.274;18.908;2023-05-25T06:05:38;98736.09;;;11.18;82.08
61898;BME280;47850;50.274;18.908;2023-05-25T06:08:06;98741.15;;;11.21;82.00
61898;BME280;47850;50.274;18.908;2023-05-25T06:10:37;98743.52;;;11.23;81.96
61898;BME280;47850;50.274;18.908;2023-05-25T06:13:05;98748.41;;;11.20;82.15
61898;BME280;47850;50.274;18.908;2023-05-25T06:15:35;98749.89;;;11.17;82.26
61898;BME280;47850;50.274;18.908;2023-05-25T06:18:03;98749.02;;;11.14;82.27
61898;BME280;47850;50.274;18.908;2023-05-25T06:20:31;98750.82;;;11.14;82.39
61898;BME280;47850;50.274;18.908;2023-05-25T06:22:58;98755.55;;;11.15;82.27
61898;BME280;47850;50.274;18.908;2023-05-25T06:25:26;98759.58;;;11.16;82.16
61898;BME280;47850;50.274;18.908;2023-05-25T06:27:54;98761.60;;;11.16;82.12
61898;BME280;47850;50.274;18.908;2023-05-25T06:30:22;98762.73;;;11.13;82.19
61898;BME280;47850;50.274;18.908;2023-05-25T06:32:50;98761.89;;;11.12;82.13
61898;BME280;47850;50.274;18.908;2023-05-25T06:35:18;98761.58;;;11.14;82.08
61898;BME280;47850;50.274;18.908;2023-05-25T06:37:46;98760.09;;;11.15;82.11
61898;BME280;47850;50.274;18.908;2023-05-25T06:40:15;98761.29;;;11.17;82.16
61898;BME280;47850;50.274;18.908;2023-05-25T06:42:43;98762.59;;;11.17;82.09
61898;BME280;47850;50.274;18.908;2023-05-25T06:45:11;98768.59;;;11.18;82.16
61898;BME280;47850;50.274;18.908;2023-05-25T06:47:39;98767.20;;;11.17;82.25
61898;BME280;47850;50.274;18.908;2023-05-25T06:50:07;98766.45;;;11.21;82.36
61898;BME280;47850;50.274;18.908;2023-05-25T06:52:35;98772.58;;;11.25;82.29
61898;BME280;47850;50.274;18.908;2023-05-25T06:55:03;98776.56;;;11.25;82.06
61898;BME280;47850;50.274;18.908;2023-05-25T06:57:32;98777.81;;;11.23;82.10
61898;BME280;47850;50.274;18.908;2023-05-25T06:59:59;98777.08;;;11.21;82.19
61898;BME280;47850;50.274;18.908;2023-05-25T07:02:28;98775.92;;;11.20;82.18
61898;BME280;47850;50.274;18.908;2023-05-25T07:04:56;98773.01;;;11.19;82.33
61898;BME280;47850;50.274;18.908;2023-05-25T07:07:23;98773.44;;;11.18;82.19
61898;BME280;47850;50.274;18.908;2023-05-25T07:09:51;98776.19;;;11.20;82.10
61898;BME280;47850;50.274;18.908;2023-05-25T07:12:19;98781.09;;;11.23;82.00
61898;BME280;47850;50.274;18.908;2023-05-25T07:14:47;98787.91;;;11.25;81.84
61898;BME280;47850;50.274;18.908;2023-05-25T07:17:15;98786.30;;;11.24;81.75
61898;BME280;47850;50.274;18.908;2023-05-25T07:19:43;98791.79;;;11.23;81.87
61898;BME280;47850;50.274;18.908;2023-05-25T07:22:11;98787.83;;;11.22;81.89
61898;BME280;47850;50.274;18.908;2023-05-25T07:24:39;98789.63;;;11.27;81.83
61898;BME280;47850;50.274;18.908;2023-05-25T07:27:07;98790.70;;;11.30;81.81
61898;BME280;47850;50.274;18.908;2023-05-25T07:29:35;98793.30;;;11.36;81.74
61898;BME280;47850;50.274;18.908;2023-05-25T07:32:03;98794.27;;;11.41;81.67
61898;BME280;47850;50.274;18.908;2023-05-25T07:34:32;98794.01;;;11.47;81.51
61898;BME280;47850;50.274;18.908;2023-05-25T07:37:00;98798.04;;;11.53;81.14
61898;BME280;47850;50.274;18.908;2023-05-25T07:39:28;98792.89;;;11.58;81.15
61898;BME280;47850;50.274;18.908;2023-05-25T07:41:56;98794.61;;;11.65;80.93
61898;BME280;47850;50.274;18.908;2023-05-25T07:44:24;98793.70;;;11.74;80.72
61898;BME280;47850;50.274;18.908;2023-05-25T07:46:52;98795.83;;;11.80;80.63
61898;BME280;47850;50.274;18.908;2023-05-25T07:49:20;98800.78;;;11.85;80.31
61898;BME280;47850;50.274;18.908;2023-05-25T07:51:48;98804.38;;;11.90;79.99
61898;BME280;47850;50.274;18.908;2023-05-25T07:54:16;98801.16;;;11.94;79.88
61898;BME280;47850;50.274;18.908;2023-05-25T07:56:44;98805.69;;;11.98;79.85
61898;BME280;47850;50.274;18.908;2023-05-25T07:59:12;98805.90;;;12.00;79.78
61898;BME280;47850;50.274;18.908;2023-05-25T08:01:40;98806.88;;;12.01;79.48
61898;BME280;47850;50.274;18.908;2023-05-25T08:04:08;98806.64;;;12.02;79.63
61898;BME280;47850;50.274;18.908;2023-05-25T08:06:36;98807.43;;;12.01;79.38
61898;BME280;47850;50.274;18.908;2023-05-25T08:09:05;98803.00;;;11.95;79.59
61898;BME280;47850;50.274;18.908;2023-05-25T08:11:34;98804.28;;;11.97;79.67
61898;BME280;47850;50.274;18.908;2023-05-25T08:14:02;98801.70;;;12.00;79.48
61898;BME280;47850;50.274;18.908;2023-05-25T08:16:30;98804.04;;;12.05;79.56
61898;BME280;47850;50.274;18.908;2023-05-25T08:18:57;98799.23;;;12.09;79.44
61898;BME280;47850;50.274;18.908;2023-05-25T08:21:28;98798.33;;;12.16;79.42
61898;BME280;47850;50.274;18.908;2023-05-25T08:23:55;98802.64;;;12.20;79.22
61898;BME280;47850;50.274;18.908;2023-05-25T08:26:23;98803.36;;;12.18;79.14
61898;BME280;47850;50.274;18.908;2023-05-25T08:28:51;98803.21;;;12.19;79.21
61898;BME280;47850;50.274;18.908;2023-05-25T08:31:19;98803.11;;;12.15;78.95
61898;BME280;47850;50.274;18.908;2023-05-25T08:33:46;98804.94;;;12.12;79.17
61898;BME280;47850;50.274;18.908;2023-05-25T08:36:14;98801.56;;;12.11;79.18
61898;BME280;47850;50.274;18.908;2023-05-25T08:38:42;98800.92;;;12.11;79.37
61898;BME280;47850;50.274;18.908;2023-05-25T08:41:11;98802.67;;;12.13;79.35
61898;BME280;47850;50.274;18.908;2023-05-25T08:43:40;98804.03;;;12.15;79.59
61898;BME280;47850;50.274;18.908;2023-05-25T08:46:08;98808.47;;;12.11;79.38
61898;BME280;47850;50.274;18.908;2023-05-25T08:48:37;98802.14;;;12.03;79.78
61898;BME280;47850;50.274;18.908;2023-05-25T08:51:09;98803.65;;;12.03;79.82
61898;BME280;47850;50.274;18.908;2023-05-25T08:53:38;98807.73;;;11.99;79.90
61898;BME280;47850;50.274;18.908;2023-05-25T08:56:18;98807.59;;;11.98;79.98
61898;BME280;47850;50.274;18.908;2023-05-25T08:58:57;98808.52;;;12.01;79.92
61898;BME280;47850;50.274;18.908;2023-05-25T09:01:32;98808.80;;;12.13;80.12
61898;BME280;47850;50.274;18.908;2023-05-25T09:04:05;98804.80;;;12.28;79.91
61898;BME280;47850;50.274;18.908;2023-05-25T09:06:33;98801.44;;;12.41;79.27
61898;BME280;47850;50.274;18.908;2023-05-25T09:09:03;98809.97;;;12.52;78.98
61898;BME280;47850;50.274;18.908;2023-05-25T09:11:32;98811.44;;;12.63;78.67
61898;BME280;47850;50.274;18.908;2023-05-25T09:14:00;98805.30;;;12.71;77.96
61898;BME280;47850;50.274;18.908;2023-05-25T09:16:30;98802.25;;;12.76;77.85
61898;BME280;47850;50.274;18.908;2023-05-25T09:19:00;98806.15;;;12.89;77.52
61898;BME280;47850;50.274;18.908;2023-05-25T09:21:28;98805.94;;;12.94;76.84
61898;BME280;47850;50.274;18.908;2023-05-25T09:23:58;98807.60;;;12.91;76.79
61898;BME280;47850;50.274;18.908;2023-05-25T09:26:26;98810.16;;;12.92;76.65
61898;BME280;47850;50.274;18.908;2023-05-25T09:28:54;98812.50;;;12.95;76.75
61898;BME280;47850;50.274;18.908;2023-05-25T09:31:23;98811.10;;;13.03;76.91
61898;BME280;47850;50.274;18.908;2023-05-25T09:33:51;98811.47;;;13.16;76.62
61898;BME280;47850;50.274;18.908;2023-05-25T09:36:26;98813.83;;;13.30;76.29
61898;BME280;47850;50.274;18.908;2023-05-25T09:38:54;98815.17;;;13.41;76.03
61898;BME280;47850;50.274;18.908;2023-05-25T09:41:22;98816.11;;;13.48;75.56
61898;BME280;47850;50.274;18.908;2023-05-25T09:43:54;98817.09;;;13.57;75.21
61898;BME280;47850;50.274;18.908;2023-05-25T09:46:21;98817.17;;;13.66;74.95
61898;BME280;47850;50.274;18.908;2023-05-25T09:48:49;98817.66;;;13.72;74.70
61898;BME280;47850;50.274;18.908;2023-05-25T09:51:19;98819.61;;;13.75;74.66
61898;BME280;47850;50.274;18.908;2023-05-25T09:53:48;98821.23;;;13.86;74.20
61898;BME280;47850;50.274;18.908;2023-05-25T09:56:16;98819.19;;;13.97;74.00
61898;BME280;47850;50.274;18.908;2023-05-25T09:58:44;98820.80;;;14.07;73.62
61898;BME280;47850;50.274;18.908;2023-05-25T10:01:12;98821.39;;;14.04;72.98
61898;BME280;47850;50.274;18.908;2023-05-25T10:03:46;98820.13;;;13.97;72.81
61898;BME280;47850;50.274;18.908;2023-05-25T10:06:15;98815.25;;;13.98;72.98
61898;BME280;47850;50.274;18.908;2023-05-25T10:08:43;98814.44;;;14.12;72.89
61898;BME280;47850;50.274;18.908;2023-05-25T10:11:14;98812.95;;;14.33;72.24
61898;BME280;47850;50.274;18.908;2023-05-25T10:13:43;98810.39;;;14.43;71.52
61898;BME280;47850;50.274;18.908;2023-05-25T10:16:16;98808.42;;;14.49;71.33
61898;BME280;47850;50.274;18.908;2023-05-25T10:18:54;98808.11;;;14.57;71.20
61898;BME280;47850;50.274;18.908;2023-05-25T10:21:28;98804.85;;;14.69;70.91
61898;BME280;47850;50.274;18.908;2023-05-25T10:24:25;98807.86;;;14.80;70.80
61898;BME280;47850;50.274;18.908;2023-05-25T10:26:58;98815.04;;;15.03;69.93
61898;BME280;47850;50.274;18.908;2023-05-25T10:29:29;98817.42;;;15.19;69.48
61898;BME280;47850;50.274;18.908;2023-05-25T10:31:58;98822.81;;;15.30;68.99
61898;BME280;47850;50.274;18.908;2023-05-25T10:34:26;98817.39;;;15.28;68.62
61898;BME280;47850;50.274;18.908;2023-05-25T10:36:55;98819.45;;;15.28;68.74
61898;BME280;47850;50.274;18.908;2023-05-25T10:39:24;98821.95;;;15.28;68.56
61898;BME280;47850;50.274;18.908;2023-05-25T10:41:52;98822.25;;;15.26;68.30
61898;BME280;47850;50.274;18.908;2023-05-25T10:44:20;98822.86;;;15.23;68.46
61898;BME280;47850;50.274;18.908;2023-05-25T10:46:49;98816.40;;;15.22;68.61
61898;BME280;47850;50.274;18.908;2023-05-25T10:49:30;98818.73;;;15.22;68.62
61898;BME280;47850;50.274;18.908;2023-05-25T10:52:02;98821.65;;;15.20;68.67
61898;BME280;47850;50.274;18.908;2023-05-25T10:54:33;98820.30;;;15.24;68.57
61898;BME280;47850;50.274;18.908;2023-05-25T10:57:19;98821.27;;;15.27;68.54
61898;BME280;47850;50.274;18.908;2023-05-25T10:59:51;98820.62;;;15.33;68.34
61898;BME280;47850;50.274;18.908;2023-05-25T11:02:21;98822.66;;;15.36;68.36
61898;BME280;47850;50.274;18.908;2023-05-25T11:07:57;98814.68;;;15.35;68.22
61898;BME280;47850;50.274;18.908;2023-05-25T11:10:50;98812.27;;;15.36;68.29
61898;BME280;47850;50.274;18.908;2023-05-25T11:16:12;98807.17;;;15.15;68.23
61898;BME280;47850;50.274;18.908;2023-05-25T11:18:42;98803.61;;;15.20;68.64
61898;BME280;47850;50.274;18.908;2023-05-25T11:23:57;98802.52;;;15.40;68.67
61898;BME280;47850;50.274;18.908;2023-05-25T11:26:27;98802.52;;;15.44;67.95
61898;BME280;47850;50.274;18.908;2023-05-25T11:28:57;98805.52;;;15.42;68.27
61898;BME280;47850;50.274;18.908;2023-05-25T11:31:31;98806.02;;;15.39;68.37
61898;BME280;47850;50.274;18.908;2023-05-25T11:34:00;98809.73;;;15.35;68.80
61898;BME280;47850;50.274;18.908;2023-05-25T11:36:28;98809.36;;;15.27;68.95
61898;BME280;47850;50.274;18.908;2023-05-25T11:38:59;98808.40;;;15.16;69.05
61898;BME280;47850;50.274;18.908;2023-05-25T11:41:30;98805.27;;;15.08;69.33
61898;BME280;47850;50.274;18.908;2023-05-25T11:44:04;98803.65;;;15.03;69.50
61898;BME280;47850;50.274;18.908;2023-05-25T11:46:33;98802.16;;;14.96;69.60
61898;BME280;47850;50.274;18.908;2023-05-25T11:49:01;98807.67;;;14.93;69.81
61898;BME280;47850;50.274;18.908;2023-05-25T11:51:29;98806.95;;;14.79;70.09
61898;BME280;47850;50.274;18.908;2023-05-25T11:53:57;98800.35;;;14.68;70.48
61898;BME280;47850;50.274;18.908;2023-05-25T11:56:25;98796.38;;;14.71;70.93
61898;BME280;47850;50.274;18.908;2023-05-25T11:58:53;98794.36;;;14.77;70.46
61898;BME280;47850;50.274;18.908;2023-05-25T12:01:22;98792.78;;;14.87;70.65
61898;BME280;47850;50.274;18.908;2023-05-25T12:03:52;98792.60;;;14.97;70.38
61898;BME280;47850;50.274;18.908;2023-05-25T12:06:27;98791.52;;;14.96;70.31
61898;BME280;47850;50.274;18.908;2023-05-25T12:08:56;98795.73;;;15.01;70.50
61898;BME280;47850;50.274;18.908;2023-05-25T12:11:29;98790.16;;;15.05;70.36
61898;BME280;47850;50.274;18.908;2023-05-25T12:13:58;98787.14;;;15.10;70.09
61898;BME280;47850;50.274;18.908;2023-05-25T12:16:26;98781.50;;;15.17;70.13
61898;BME280;47850;50.274;18.908;2023-05-25T12:18:55;98783.92;;;15.25;70.08
61898;BME280;47850;50.274;18.908;2023-05-25T12:21:23;98777.20;;;15.37;70.07
61898;BME280;47850;50.274;18.908;2023-05-25T12:23:52;98785.64;;;15.48;69.73
61898;BME280;47850;50.274;18.908;2023-05-25T12:26:20;98781.02;;;15.51;69.41
61898;BME280;47850;50.274;18.908;2023-05-25T12:29:02;98778.39;;;15.52;69.38
61898;BME280;47850;50.274;18.908;2023-05-25T12:31:32;98777.87;;;15.60;69.13
61898;BME280;47850;50.274;18.908;2023-05-25T12:34:08;98773.91;;;15.65;68.79
61898;BME280;47850;50.274;18.908;2023-05-25T12:39:06;98783.02;;;15.56;72.65
61898;BME280;47850;50.274;18.908;2023-05-25T12:41:48;98782.71;;;15.54;72.56
61898;BME280;47850;50.274;18.908;2023-05-25T12:44:20;98781.95;;;15.53;72.73
61898;BME280;47850;50.274;18.908;2023-05-25T12:46:49;98777.98;;;15.56;72.67
61898;BME280;47850;50.274;18.908;2023-05-25T12:51:50;98774.48;;;15.59;73.03
61898;BME280;47850;50.274;18.908;2023-05-25T12:54:44;98771.06;;;15.65;73.13
61898;BME280;47850;50.274;18.908;2023-05-25T12:57:14;98771.27;;;15.71;73.02
61898;BME280;47850;50.274;18.908;2023-05-25T12:59:44;98769.34;;;15.72;72.81
61898;BME280;47850;50.274;18.908;2023-05-25T13:02:13;98769.35;;;15.69;72.92
61898;BME280;47850;50.274;18.908;2023-05-25T13:04:41;98767.81;;;15.60;72.98
61898;BME280;47850;50.274;18.908;2023-05-25T13:07:09;98765.68;;;15.46;73.39
61898;BME280;47850;50.274;18.908;2023-05-25T13:09:37;98765.40;;;15.40;73.58
61898;BME280;47850;50.274;18.908;2023-05-25T13:12:05;98771.79;;;15.39;73.77
61898;BME280;47850;50.274;18.908;2023-05-25T13:14:33;98769.33;;;15.42;73.84
61898;BME280;47850;50.274;18.908;2023-05-25T13:17:01;98771.88;;;15.47;73.69
61898;BME280;47850;50.274;18.908;2023-05-25T13:19:29;98771.57;;;15.48;73.48
61898;BME280;47850;50.274;18.908;2023-05-25T13:21:57;98771.25;;;15.48;73.46
61898;BME280;47850;50.274;18.908;2023-05-25T13:24:25;98767.35;;;15.51;73.31
61898;BME280;47850;50.274;18.908;2023-05-25T13:26:53;98761.01;;;15.60;73.34
61898;BME280;47850;50.274;18.908;2023-05-25T13:29:21;98758.23;;;15.73;73.27